sensor_id;sensor_type;location;lat;lon;timestamp;temperature;humidity
78649;DHT22;67962;47.310;9.642;2024-01-30T00:01:53;3.00;76.60
78649;DHT22;67962;47.310;9.642;2024-01-30T00:04:19;3.00;76.30
78649;DHT22;67962;47.310;9.642;2024-01-30T00:06:45;2.90;76.50
78649;DHT22;67962;47.310;9.642;2024-01-30T00:09:11;2.90;76.60
78649;DHT22;67962;47.310;9.642;2024-01-30T00:11:37;2.90;76.20
78649;DHT22;67962;47.310;9.642;2024-01-30T00:14:04;2.80;76.60
78649;DHT22;67962;47.310;9.642;2024-01-30T00:16:29;2.80;76.70
78649;DHT22;67962;47.310;9.642;2024-01-30T00:18:55;2.70;76.90
78649;DHT22;67962;47.310;9.642;2024-01-30T00:21:21;2.80;77.10
78649;DHT22;67962;47.310;9.642;2024-01-30T00:23:47;2.90;77.60
78649;DHT22;67962;47.310;9.642;2024-01-30T00:26:13;2.80;76.50
78649;DHT22;67962;47.310;9.642;2024-01-30T00:28:41;2.90;76.20
78649;DHT22;67962;47.310;9.642;2024-01-30T00:31:07;2.80;76.00
78649;DHT22;67962;47.310;9.642;2024-01-30T00:33:33;2.80;76.00
78649;DHT22;67962;47.310;9.642;2024-01-30T00:35:58;2.70;76.30
78649;DHT22;67962;47.310;9.642;2024-01-30T00:38:24;2.70;76.90
78649;DHT22;67962;47.310;9.642;2024-01-30T00:40:50;2.90;77.00
78649;DHT22;67962;47.310;9.642;2024-01-30T00:43:16;3.00;77.00
78649;DHT22;67962;47.310;9.642;2024-01-30T00:45:44;3.00;76.50
78649;DHT22;67962;47.310;9.642;2024-01-30T00:48:10;2.90;76.10
78649;DHT22;67962;47.310;9.642;2024-01-30T00:50:36;2.80;76.50
78649;DHT22;67962;47.310;9.642;2024-01-30T00:53:01;2.70;76.30
78649;DHT22;67962;47.310;9.642;2024-01-30T00:55:27;2.70;76.60
78649;DHT22;67962;47.310;9.642;2024-01-30T00:57:53;2.70;76.70
78649;DHT22;67962;47.310;9.642;2024-01-30T01:00:18;2.60;76.30
78649;DHT22;67962;47.310;9.642;2024-01-30T01:02:46;2.60;76.60
78649;DHT22;67962;47.310;9.642;2024-01-30T01:05:12;2.70;76.10
78649;DHT22;67962;47.310;9.642;2024-01-30T01:07:37;2.60;76.00
78649;DHT22;67962;47.310;9.642;2024-01-30T01:10:03;2.50;76.30
78649;DHT22;67962;47.310;9.642;2024-01-30T01:12:29;2.40;77.20
78649;DHT22;67962;47.310;9.642;2024-01-30T01:14:55;2.40;76.70
78649;DHT22;67962;47.310;9.642;2024-01-30T01:17:21;2.50;76.70
78649;DHT22;67962;47.310;9.642;2024-01-30T01:19:46;2.50;76.40
78649;DHT22;67962;47.310;9.642;2024-01-30T01:22:12;2.50;76.60
78649;DHT22;67962;47.310;9.642;2024-01-30T01:24:38;2.50;76.40
78649;DHT22;67962;47.310;9.642;2024-01-30T01:27:05;2.50;76.10
78649;DHT22;67962;47.310;9.642;2024-01-30T01:29:31;2.50;76.20
78649;DHT22;67962;47.310;9.642;2024-01-30T01:31:57;2.60;76.20
78649;DHT22;67962;47.310;9.642;2024-01-30T01:34:23;2.60;76.00
78649;DHT22;67962;47.310;9.642;2024-01-30T01:36:49;2.60;75.70
78649;DHT22;67962;47.310;9.642;2024-01-30T01:39:16;2.50;75.50
78649;DHT22;67962;47.310;9.642;2024-01-30T01:41:41;2.40;75.80
78649;DHT22;67962;47.310;9.642;2024-01-30T01:44:08;2.40;76.00
78649;DHT22;67962;47.310;9.642;2024-01-30T01:46:34;2.40;76.30
78649;DHT22;67962;47.310;9.642;2024-01-30T01:49:03;2.50;76.20
78649;DHT22;67962;47.310;9.642;2024-01-30T01:51:31;2.40;75.90
78649;DHT22;67962;47.310;9.642;2024-01-30T01:54:00;2.40;75.80
78649;DHT22;67962;47.310;9.642;2024-01-30T01:56:27;2.20;76.10
78649;DHT22;67962;47.310;9.642;2024-01-30T01:58:54;2.20;76.20
78649;DHT22;67962;47.310;9.642;2024-01-30T02:01:21;2.20;76.10
78649;DHT22;67962;47.310;9.642;2024-01-30T02:03:47;2.20;76.40
78649;DHT22;67962;47.310;9.642;2024-01-30T02:06:16;2.30;76.00
78649;DHT22;67962;47.310;9.642;2024-01-30T02:08:42;2.20;75.90
78649;DHT22;67962;47.310;9.642;2024-01-30T02:11:08;2.20;76.20
78649;DHT22;67962;47.310;9.642;2024-01-30T02:13:35;2.10;76.10
78649;DHT22;67962;47.310;9.642;2024-01-30T02:16:01;2.00;76.30
78649;DHT22;67962;47.310;9.642;2024-01-30T02:18:27;2.10;76.40
78649;DHT22;67962;47.310;9.642;2024-01-30T02:20:54;2.10;76.10
78649;DHT22;67962;47.310;9.642;2024-01-30T02:23:23;2.00;76.30
78649;DHT22;67962;47.310;9.642;2024-01-30T02:25:50;2.00;77.10
78649;DHT22;67962;47.310;9.642;2024-01-30T02:28:18;1.90;75.80
78649;DHT22;67962;47.310;9.642;2024-01-30T02:30:44;1.90;76.20
78649;DHT22;67962;47.310;9.642;2024-01-30T02:33:10;1.80;76.50
78649;DHT22;67962;47.310;9.642;2024-01-30T02:35:35;1.90;76.40
78649;DHT22;67962;47.310;9.642;2024-01-30T02:38:01;2.00;76.30
78649;DHT22;67962;47.310;9.642;2024-01-30T02:40:27;2.00;76.00
78649;DHT22;67962;47.310;9.642;2024-01-30T02:42:53;2.10;76.00
78649;DHT22;67962;47.310;9.642;2024-01-30T02:45:18;2.10;75.70
78649;DHT22;67962;47.310;9.642;2024-01-30T02:47:45;2.10;75.60
78649;DHT22;67962;47.310;9.642;2024-01-30T02:50:10;2.00;75.80
78649;DHT22;67962;47.310;9.642;2024-01-30T02:52:36;2.00;75.50
78649;DHT22;67962;47.310;9.642;2024-01-30T02:55:02;1.90;75.80
78649;DHT22;67962;47.310;9.642;2024-01-30T02:57:28;1.80;76.00
78649;DHT22;67962;47.310;9.642;2024-01-30T02:59:54;1.90;76.10
78649;DHT22;67962;47.310;9.642;2024-01-30T03:02:20;1.90;76.20
78649;DHT22;67962;47.310;9.642;2024-01-30T03:04:46;2.00;76.10
78649;DHT22;67962;47.310;9.642;2024-01-30T03:07:12;2.00;75.50
78649;DHT22;67962;47.310;9.642;2024-01-30T03:09:38;2.00;75.50
78649;DHT22;67962;47.310;9.642;2024-01-30T03:12:04;1.80;75.30
78649;DHT22;67962;47.310;9.642;2024-01-30T03:14:31;1.70;75.50
78649;DHT22;67962;47.310;9.642;2024-01-30T03:16:57;1.70;76.20
78649;DHT22;67962;47.310;9.642;2024-01-30T03:19:23;1.70;76.20
78649;DHT22;67962;47.310;9.642;2024-01-30T03:21:49;1.80;75.70
78649;DHT22;67962;47.310;9.642;2024-01-30T03:24:15;1.70;75.60
78649;DHT22;67962;47.310;9.642;2024-01-30T03:26:40;1.70;75.50
78649;DHT22;67962;47.310;9.642;2024-01-30T03:29:06;1.70;75.60
78649;DHT22;67962;47.310;9.642;2024-01-30T03:31:32;1.60;75.60
78649;DHT22;67962;47.310;9.642;2024-01-30T03:33:58;1.50;75.70
78649;DHT22;67962;47.310;9.642;2024-01-30T03:36:23;1.40;75.50
78649;DHT22;67962;47.310;9.642;2024-01-30T03:38:49;1.30;75.80
78649;DHT22;67962;47.310;9.642;2024-01-30T03:41:15;1.30;76.20
78649;DHT22;67962;47.310;9.642;2024-01-30T03:43:40;1.40;76.40
78649;DHT22;67962;47.310;9.642;2024-01-30T03:46:06;1.50;76.40
78649;DHT22;67962;47.310;9.642;2024-01-30T03:48:32;1.60;76.10
78649;DHT22;67962;47.310;9.642;2024-01-30T03:50:57;1.60;75.90
78649;DHT22;67962;47.310;9.642;2024-01-30T03:53:23;1.70;75.70
78649;DHT22;67962;47.310;9.642;2024-01-30T03:55:49;1.70;75.60
78649;DHT22;67962;47.310;9.642;2024-01-30T03:58:15;1.70;75.50
78649;DHT22;67962;47.310;9.642;2024-01-30T04:00:40;1.70;75.30
78649;DHT22;67962;47.310;9.642;2024-01-30T04:03:06;1.80;75.50
78649;DHT22;67962;47.310;9.642;2024-01-30T04:05:33;1.70;75.10
78649;DHT22;67962;47.310;9.642;2024-01-30T04:07:59;1.60;75.30
78649;DHT22;67962;47.310;9.642;2024-01-30T04:10:24;1.50;75.50
78649;DHT22;67962;47.310;9.642;2024-01-30T04:12:51;1.50;75.60
78649;DHT22;67962;47.310;9.642;2024-01-30T04:15:17;1.40;75.70
78649;DHT22;67962;47.310;9.642;2024-01-30T04:17:43;1.30;75.80
78649;DHT22;67962;47.310;9.642;2024-01-30T04:20:16;1.30;75.80
78649;DHT22;67962;47.310;9.642;2024-01-30T04:22:46;1.30;76.00
78649;DHT22;67962;47.310;9.642;2024-01-30T04:25:13;1.30;76.00
78649;DHT22;67962;47.310;9.642;2024-01-30T04:27:39;1.40;75.90
78649;DHT22;67962;47.310;9.642;2024-01-30T04:30:05;1.40;75.30
78649;DHT22;67962;47.310;9.642;2024-01-30T04:32:32;1.30;75.80
78649;DHT22;67962;47.310;9.642;2024-01-30T04:34:57;1.20;76.60
78649;DHT22;67962;47.310;9.642;2024-01-30T04:37:24;1.20;75.60
78649;DHT22;67962;47.310;9.642;2024-01-30T04:39:50;1.20;75.90
78649;DHT22;67962;47.310;9.642;2024-01-30T04:42:16;1.10;75.50
78649;DHT22;67962;47.310;9.642;2024-01-30T04:44:42;1.10;76.00
78649;DHT22;67962;47.310;9.642;2024-01-30T04:47:08;1.20;76.50
78649;DHT22;67962;47.310;9.642;2024-01-30T04:49:38;1.20;76.00
78649;DHT22;67962;47.310;9.642;2024-01-30T04:52:08;1.20;75.50
78649;DHT22;67962;47.310;9.642;2024-01-30T04:54:35;1.20;75.90
78649;DHT22;67962;47.310;9.642;2024-01-30T04:57:01;1.30;75.60
78649;DHT22;67962;47.310;9.642;2024-01-30T04:59:27;1.30;75.70
78649;DHT22;67962;47.310;9.642;2024-01-30T05:01:53;1.30;75.70
78649;DHT22;67962;47.310;9.642;2024-01-30T05:04:18;1.30;75.60
78649;DHT22;67962;47.310;9.642;2024-01-30T05:06:44;1.30;75.90
78649;DHT22;67962;47.310;9.642;2024-01-30T05:09:10;1.40;75.80
78649;DHT22;67962;47.310;9.642;2024-01-30T05:11:40;1.30;75.50
78649;DHT22;67962;47.310;9.642;2024-01-30T05:14:07;1.20;75.60
78649;DHT22;67962;47.310;9.642;2024-01-30T05:16:34;1.20;76.00
78649;DHT22;67962;47.310;9.642;2024-01-30T05:19:00;1.20;75.50
78649;DHT22;67962;47.310;9.642;2024-01-30T05:21:25;1.10;75.60
78649;DHT22;67962;47.310;9.642;2024-01-30T05:23:51;1.10;75.90
78649;DHT22;67962;47.310;9.642;2024-01-30T05:26:17;1.10;76.20
78649;DHT22;67962;47.310;9.642;2024-01-30T05:28:43;1.20;76.30
78649;DHT22;67962;47.310;9.642;2024-01-30T05:31:11;1.30;76.10
78649;DHT22;67962;47.310;9.642;2024-01-30T05:33:37;1.30;75.70
78649;DHT22;67962;47.310;9.642;2024-01-30T05:36:03;1.30;75.40
78649;DHT22;67962;47.310;9.642;2024-01-30T05:38:29;1.20;75.30
78649;DHT22;67962;47.310;9.642;2024-01-30T05:40:55;1.20;75.30
78649;DHT22;67962;47.310;9.642;2024-01-30T05:43:23;1.10;75.70
78649;DHT22;67962;47.310;9.642;2024-01-30T05:45:49;1.10;76.00
78649;DHT22;67962;47.310;9.642;2024-01-30T05:48:14;1.10;75.90
78649;DHT22;67962;47.310;9.642;2024-01-30T05:50:40;1.10;75.90
78649;DHT22;67962;47.310;9.642;2024-01-30T05:53:06;1.10;75.90
78649;DHT22;67962;47.310;9.642;2024-01-30T05:55:31;1.20;75.60
78649;DHT22;67962;47.310;9.642;2024-01-30T05:57:57;1.20;75.30
78649;DHT22;67962;47.310;9.642;2024-01-30T06:00:23;1.20;75.70
78649;DHT22;67962;47.310;9.642;2024-01-30T06:02:49;1.30;75.10
78649;DHT22;67962;47.310;9.642;2024-01-30T06:05:14;1.20;75.30
78649;DHT22;67962;47.310;9.642;2024-01-30T06:07:40;1.10;75.60
78649;DHT22;67962;47.310;9.642;2024-01-30T06:10:06;1.00;75.80
78649;DHT22;67962;47.310;9.642;2024-01-30T06:12:32;1.00;76.00
78649;DHT22;67962;47.310;9.642;2024-01-30T06:14:58;1.00;76.00
78649;DHT22;67962;47.310;9.642;2024-01-30T06:17:24;1.10;75.80
78649;DHT22;67962;47.310;9.642;2024-01-30T06:19:49;1.20;75.70
78649;DHT22;67962;47.310;9.642;2024-01-30T06:22:16;1.10;75.00
78649;DHT22;67962;47.310;9.642;2024-01-30T06:24:42;1.00;74.90
78649;DHT22;67962;47.310;9.642;2024-01-30T06:27:10;1.00;75.30
78649;DHT22;67962;47.310;9.642;2024-01-30T06:29:36;0.90;75.00
78649;DHT22;67962;47.310;9.642;2024-01-30T06:32:02;0.90;75.60
78649;DHT22;67962;47.310;9.642;2024-01-30T06:34:27;0.90;76.00
78649;DHT22;67962;47.310;9.642;2024-01-30T06:36:53;1.00;75.50
78649;DHT22;67962;47.310;9.642;2024-01-30T06:39:19;1.00;75.70
78649;DHT22;67962;47.310;9.642;2024-01-30T06:41:44;1.00;75.80
78649;DHT22;67962;47.310;9.642;2024-01-30T06:44:12;1.00;75.80
78649;DHT22;67962;47.310;9.642;2024-01-30T06:46:38;1.00;75.60
78649;DHT22;67962;47.310;9.642;2024-01-30T06:49:04;1.00;75.70
78649;DHT22;67962;47.310;9.642;2024-01-30T06:51:30;1.00;75.90
78649;DHT22;67962;47.310;9.642;2024-01-30T06:53:56;1.00;76.80
78649;DHT22;67962;47.310;9.642;2024-01-30T06:56:21;1.10;75.90
78649;DHT22;67962;47.310;9.642;2024-01-30T06:58:48;1.00;75.60
78649;DHT22;67962;47.310;9.642;2024-01-30T07:01:14;1.00;75.40
78649;DHT22;67962;47.310;9.642;2024-01-30T07:03:40;0.90;75.60
78649;DHT22;67962;47.310;9.642;2024-01-30T07:06:06;1.00;75.70
78649;DHT22;67962;47.310;9.642;2024-01-30T07:08:31;1.00;75.90
78649;DHT22;67962;47.310;9.642;2024-01-30T07:10:57;1.10;76.00
78649;DHT22;67962;47.310;9.642;2024-01-30T07:13:23;1.20;75.90
78649;DHT22;67962;47.310;9.642;2024-01-30T07:15:49;1.30;75.50
78649;DHT22;67962;47.310;9.642;2024-01-30T07:18:14;1.30;75.20
78649;DHT22;67962;47.310;9.642;2024-01-30T07:20:40;1.30;75.20
78649;DHT22;67962;47.310;9.642;2024-01-30T07:23:14;1.30;75.30
78649;DHT22;67962;47.310;9.642;2024-01-30T07:25:42;1.30;75.30
78649;DHT22;67962;47.310;9.642;2024-01-30T07:28:08;1.20;75.40
78649;DHT22;67962;47.310;9.642;2024-01-30T07:30:38;1.20;75.60
78649;DHT22;67962;47.310;9.642;2024-01-30T07:33:04;1.10;76.00
78649;DHT22;67962;47.310;9.642;2024-01-30T07:35:30;1.10;76.20
78649;DHT22;67962;47.310;9.642;2024-01-30T07:37:55;1.20;76.10
78649;DHT22;67962;47.310;9.642;2024-01-30T07:40:22;1.20;76.10
78649;DHT22;67962;47.310;9.642;2024-01-30T07:42:48;1.30;76.30
78649;DHT22;67962;47.310;9.642;2024-01-30T07:45:14;1.40;75.80
78649;DHT22;67962;47.310;9.642;2024-01-30T07:47:40;1.50;75.40
78649;DHT22;67962;47.310;9.642;2024-01-30T07:50:06;1.30;75.60
78649;DHT22;67962;47.310;9.642;2024-01-30T07:52:32;1.30;76.00
78649;DHT22;67962;47.310;9.642;2024-01-30T07:58:13;1.60;76.40
78649;DHT22;67962;47.310;9.642;2024-01-30T08:00:38;1.80;76.10
78649;DHT22;67962;47.310;9.642;2024-01-30T08:03:04;1.90;75.40
78649;DHT22;67962;47.310;9.642;2024-01-30T08:05:30;2.00;75.30
78649;DHT22;67962;47.310;9.642;2024-01-30T08:07:56;2.20;75.20
78649;DHT22;67962;47.310;9.642;2024-01-30T08:10:22;2.30;75.00
78649;DHT22;67962;47.310;9.642;2024-01-30T08:12:47;2.40;74.70
78649;DHT22;67962;47.310;9.642;2024-01-30T08:15:13;2.50;74.60
78649;DHT22;67962;47.310;9.642;2024-01-30T08:17:39;2.60;73.90
78649;DHT22;67962;47.310;9.642;2024-01-30T08:20:05;2.50;74.20
78649;DHT22;67962;47.310;9.642;2024-01-30T08:22:31;2.40;74.70
78649;DHT22;67962;47.310;9.642;2024-01-30T08:24:57;2.40;74.90
78649;DHT22;67962;47.310;9.642;2024-01-30T08:27:22;2.40;75.10
78649;DHT22;67962;47.310;9.642;2024-01-30T08:29:48;2.50;75.30
78649;DHT22;67962;47.310;9.642;2024-01-30T08:32:15;2.50;75.40
78649;DHT22;67962;47.310;9.642;2024-01-30T08:34:41;2.50;75.10
78649;DHT22;67962;47.310;9.642;2024-01-30T08:37:07;2.50;75.30
78649;DHT22;67962;47.310;9.642;2024-01-30T08:39:33;2.60;75.60
78649;DHT22;67962;47.310;9.642;2024-01-30T08:41:58;2.70;75.70
78649;DHT22;67962;47.310;9.642;2024-01-30T08:44:24;3.00;75.60
78649;DHT22;67962;47.310;9.642;2024-01-30T08:46:50;3.30;75.40
78649;DHT22;67962;47.310;9.642;2024-01-30T08:49:20;3.50;75.30
78649;DHT22;67962;47.310;9.642;2024-01-30T08:51:45;3.80;74.60
78649;DHT22;67962;47.310;9.642;2024-01-30T08:54:11;4.10;74.10
78649;DHT22;67962;47.310;9.642;2024-01-30T08:56:37;4.20;73.40
78649;DHT22;67962;47.310;9.642;2024-01-30T08:59:02;4.30;72.80
78649;DHT22;67962;47.310;9.642;2024-01-30T09:01:28;4.20;73.00
78649;DHT22;67962;47.310;9.642;2024-01-30T09:03:54;4.20;73.30
78649;DHT22;67962;47.310;9.642;2024-01-30T09:06:19;4.30;74.00
78649;DHT22;67962;47.310;9.642;2024-01-30T09:08:45;4.50;73.70
78649;DHT22;67962;47.310;9.642;2024-01-30T09:11:14;4.60;72.90
78649;DHT22;67962;47.310;9.642;2024-01-30T09:13:40;4.60;72.40
78649;DHT22;67962;47.310;9.642;2024-01-30T09:16:07;4.50;72.30
78649;DHT22;67962;47.310;9.642;2024-01-30T09:18:33;4.40;72.30
78649;DHT22;67962;47.310;9.642;2024-01-30T09:20:59;4.40;72.60
78649;DHT22;67962;47.310;9.642;2024-01-30T09:23:27;4.30;72.70
78649;DHT22;67962;47.310;9.642;2024-01-30T09:25:53;4.30;73.20
78649;DHT22;67962;47.310;9.642;2024-01-30T09:28:18;4.40;73.10
78649;DHT22;67962;47.310;9.642;2024-01-30T09:30:44;4.30;73.10
78649;DHT22;67962;47.310;9.642;2024-01-30T09:33:10;4.30;73.60
78649;DHT22;67962;47.310;9.642;2024-01-30T09:35:39;4.20;73.80
78649;DHT22;67962;47.310;9.642;2024-01-30T09:38:04;4.20;74.10
78649;DHT22;67962;47.310;9.642;2024-01-30T09:40:30;4.30;74.00
78649;DHT22;67962;47.310;9.642;2024-01-30T09:42:56;4.50;74.70
78649;DHT22;67962;47.310;9.642;2024-01-30T09:45:25;4.80;74.30
78649;DHT22;67962;47.310;9.642;2024-01-30T09:47:52;5.00;73.50
78649;DHT22;67962;47.310;9.642;2024-01-30T09:50:19;5.30;72.80
78649;DHT22;67962;47.310;9.642;2024-01-30T09:52:46;5.40;72.50
78649;DHT22;67962;47.310;9.642;2024-01-30T09:55:11;5.50;71.60
78649;DHT22;67962;47.310;9.642;2024-01-30T09:57:38;5.50;71.60
78649;DHT22;67962;47.310;9.642;2024-01-30T10:00:05;5.60;72.00
78649;DHT22;67962;47.310;9.642;2024-01-30T10:02:34;5.70;72.00
78649;DHT22;67962;47.310;9.642;2024-01-30T10:05:01;5.90;71.90
78649;DHT22;67962;47.310;9.642;2024-01-30T10:07:27;6.00;71.50
78649;DHT22;67962;47.310;9.642;2024-01-30T10:09:53;5.90;70.80
78649;DHT22;67962;47.310;9.642;2024-01-30T10:12:19;5.90;71.00
78649;DHT22;67962;47.310;9.642;2024-01-30T10:14:45;5.80;71.30
78649;DHT22;67962;47.310;9.642;2024-01-30T10:17:12;5.80;71.20
78649;DHT22;67962;47.310;9.642;2024-01-30T10:19:39;5.90;71.50
78649;DHT22;67962;47.310;9.642;2024-01-30T10:22:05;5.90;71.50
78649;DHT22;67962;47.310;9.642;2024-01-30T10:24:31;6.00;71.20
78649;DHT22;67962;47.310;9.642;2024-01-30T10:26:58;6.10;71.00
78649;DHT22;67962;47.310;9.642;2024-01-30T10:29:24;6.20;71.00
78649;DHT22;67962;47.310;9.642;2024-01-30T10:32:03;6.40;71.50
78649;DHT22;67962;47.310;9.642;2024-01-30T10:34:29;6.60;71.00
78649;DHT22;67962;47.310;9.642;2024-01-30T10:37:10;6.90;71.00
78649;DHT22;67962;47.310;9.642;2024-01-30T10:39:46;7.10;70.50
78649;DHT22;67962;47.310;9.642;2024-01-30T10:42:13;7.40;70.10
78649;DHT22;67962;47.310;9.642;2024-01-30T10:44:56;7.30;68.50
78649;DHT22;67962;47.310;9.642;2024-01-30T10:47:29;7.20;68.90
78649;DHT22;67962;47.310;9.642;2024-01-30T10:49:56;7.30;70.00
78649;DHT22;67962;47.310;9.642;2024-01-30T10:52:23;7.40;69.90
78649;DHT22;67962;47.310;9.642;2024-01-30T10:54:54;7.60;69.60
78649;DHT22;67962;47.310;9.642;2024-01-30T10:57:23;7.70;69.10
78649;DHT22;67962;47.310;9.642;2024-01-30T10:59:49;7.80;68.80
78649;DHT22;67962;47.310;9.642;2024-01-30T11:02:16;7.80;68.30
78649;DHT22;67962;47.310;9.642;2024-01-30T11:04:42;7.80;68.70
78649;DHT22;67962;47.310;9.642;2024-01-30T11:07:25;7.90;68.70
78649;DHT22;67962;47.310;9.642;2024-01-30T11:09:51;8.00;68.00
78649;DHT22;67962;47.310;9.642;2024-01-30T11:12:25;8.00;68.10
78649;DHT22;67962;47.310;9.642;2024-01-30T11:15:12;8.10;68.30
78649;DHT22;67962;47.310;9.642;2024-01-30T11:20:10;8.20;68.00
78649;DHT22;67962;47.310;9.642;2024-01-30T11:22:36;8.10;68.20
78649;DHT22;67962;47.310;9.642;2024-01-30T11:25:01;8.20;68.40
78649;DHT22;67962;47.310;9.642;2024-01-30T11:27:30;8.10;68.30
78649;DHT22;67962;47.310;9.642;2024-01-30T11:30:02;8.10;68.20
78649;DHT22;67962;47.310;9.642;2024-01-30T11:32:28;8.10;68.80
78649;DHT22;67962;47.310;9.642;2024-01-30T11:34:55;8.10;68.50
78649;DHT22;67962;47.310;9.642;2024-01-30T11:37:21;8.00;68.80
78649;DHT22;67962;47.310;9.642;2024-01-30T11:39:51;8.10;69.30
78649;DHT22;67962;47.310;9.642;2024-01-30T11:42:17;8.20;69.30
78649;DHT22;67962;47.310;9.642;2024-01-30T11:44:47;8.30;68.90
78649;DHT22;67962;47.310;9.642;2024-01-30T11:47:13;8.30;68.30
78649;DHT22;67962;47.310;9.642;2024-01-30T11:49:39;8.30;68.00
78649;DHT22;67962;47.310;9.642;2024-01-30T11:52:05;8.30;68.30
78649;DHT22;67962;47.310;9.642;2024-01-30T11:54:31;8.40;68.20
78649;DHT22;67962;47.310;9.642;2024-01-30T11:56:57;8.60;68.10
78649;DHT22;67962;47.310;9.642;2024-01-30T11:59:22;8.80;68.20
78649;DHT22;67962;47.310;9.642;2024-01-30T12:01:48;9.00;67.80
78649;DHT22;67962;47.310;9.642;2024-01-30T12:04:15;9.10;67.50
78649;DHT22;67962;47.310;9.642;2024-01-30T12:06:40;9.20;67.10
78649;DHT22;67962;47.310;9.642;2024-01-30T12:09:06;9.40;65.90
78649;DHT22;67962;47.310;9.642;2024-01-30T12:11:48;9.30;65.90
78649;DHT22;67962;47.310;9.642;2024-01-30T12:14:16;9.40;66.00
78649;DHT22;67962;47.310;9.642;2024-01-30T12:16:42;9.50;66.00
78649;DHT22;67962;47.310;9.642;2024-01-30T12:19:08;9.60;66.00
78649;DHT22;67962;47.310;9.642;2024-01-30T12:21:34;9.70;65.90
78649;DHT22;67962;47.310;9.642;2024-01-30T12:24:01;9.80;65.70
78649;DHT22;67962;47.310;9.642;2024-01-30T12:26:27;9.80;65.50
78649;DHT22;67962;47.310;9.642;2024-01-30T12:28:56;9.80;65.40
78649;DHT22;67962;47.310;9.642;2024-01-30T12:31:27;9.90;65.30
78649;DHT22;67962;47.310;9.642;2024-01-30T12:33:53;9.90;65.00
78649;DHT22;67962;47.310;9.642;2024-01-30T12:36:21;10.00;65.00
78649;DHT22;67962;47.310;9.642;2024-01-30T12:38:46;10.00;64.30
78649;DHT22;67962;47.310;9.642;2024-01-30T12:41:12;9.90;64.00
78649;DHT22;67962;47.310;9.642;2024-01-30T12:43:38;9.80;64.80
78649;DHT22;67962;47.310;9.642;2024-01-30T12:46:04;9.90;65.30
78649;DHT22;67962;47.310;9.642;2024-01-30T12:48:30;10.00;65.40
78649;DHT22;67962;47.310;9.642;2024-01-30T12:50:56;10.10;65.30
78649;DHT22;67962;47.310;9.642;2024-01-30T12:53:23;10.20;65.20
78649;DHT22;67962;47.310;9.642;2024-01-30T12:55:49;10.20;65.10
78649;DHT22;67962;47.310;9.642;2024-01-30T12:58:15;10.20;64.40
78649;DHT22;67962;47.310;9.642;2024-01-30T13:00:41;10.30;63.90
78649;DHT22;67962;47.310;9.642;2024-01-30T13:03:10;10.20;64.20
78649;DHT22;67962;47.310;9.642;2024-01-30T13:05:37;10.30;64.30
78649;DHT22;67962;47.310;9.642;2024-01-30T13:08:03;10.30;63.90
78649;DHT22;67962;47.310;9.642;2024-01-30T13:10:29;10.30;63.90
78649;DHT22;67962;47.310;9.642;2024-01-30T13:12:54;10.30;64.00
78649;DHT22;67962;47.310;9.642;2024-01-30T13:15:20;10.40;63.90
78649;DHT22;67962;47.310;9.642;2024-01-30T13:17:48;10.40;63.90
78649;DHT22;67962;47.310;9.642;2024-01-30T13:20:14;10.50;64.00
78649;DHT22;67962;47.310;9.642;2024-01-30T13:22:45;10.60;64.20
78649;DHT22;67962;47.310;9.642;2024-01-30T13:25:10;10.40;64.10
78649;DHT22;67962;47.310;9.642;2024-01-30T13:27:37;10.30;64.50
78649;DHT22;67962;47.310;9.642;2024-01-30T13:30:03;10.30;64.60
78649;DHT22;67962;47.310;9.642;2024-01-30T13:32:29;10.30;64.60
78649;DHT22;67962;47.310;9.642;2024-01-30T13:34:55;10.30;64.50
78649;DHT22;67962;47.310;9.642;2024-01-30T13:37:21;10.20;64.10
78649;DHT22;67962;47.310;9.642;2024-01-30T13:39:47;10.00;64.60
78649;DHT22;67962;47.310;9.642;2024-01-30T13:42:13;9.80;64.90
78649;DHT22;67962;47.310;9.642;2024-01-30T13:44:38;9.70;64.90
78649;DHT22;67962;47.310;9.642;2024-01-30T13:47:04;9.60;65.50
78649;DHT22;67962;47.310;9.642;2024-01-30T13:49:30;9.50;65.20
78649;DHT22;67962;47.310;9.642;2024-01-30T13:51:56;9.40;65.40
78649;DHT22;67962;47.310;9.642;2024-01-30T13:54:21;9.40;65.80
78649;DHT22;67962;47.310;9.642;2024-01-30T13:56:47;9.50;66.00
78649;DHT22;67962;47.310;9.642;2024-01-30T13:59:13;9.70;65.90
78649;DHT22;67962;47.310;9.642;2024-01-30T14:01:38;9.70;65.60
78649;DHT22;67962;47.310;9.642;2024-01-30T14:04:04;9.90;65.60
78649;DHT22;67962;47.310;9.642;2024-01-30T14:06:30;10.00;65.30
78649;DHT22;67962;47.310;9.642;2024-01-30T14:08:55;10.10;65.40
78649;DHT22;67962;47.310;9.642;2024-01-30T14:11:21;10.00;64.80
78649;DHT22;67962;47.310;9.642;2024-01-30T14:13:47;10.00;65.40
78649;DHT22;67962;47.310;9.642;2024-01-30T14:16:12;10.10;65.60
78649;DHT22;67962;47.310;9.642;2024-01-30T14:18:38;10.20;64.90
78649;DHT22;67962;47.310;9.642;2024-01-30T14:21:04;10.20;64.90
78649;DHT22;67962;47.310;9.642;2024-01-30T14:23:29;10.30;65.20
78649;DHT22;67962;47.310;9.642;2024-01-30T14:25:55;10.40;65.20
78649;DHT22;67962;47.310;9.642;2024-01-30T14:28:21;10.40;65.00
78649;DHT22;67962;47.310;9.642;2024-01-30T14:30:47;10.50;64.70
78649;DHT22;67962;47.310;9.642;2024-01-30T14:33:13;10.50;64.60
78649;DHT22;67962;47.310;9.642;2024-01-30T14:35:38;10.50;64.60
78649;DHT22;67962;47.310;9.642;2024-01-30T14:38:04;10.50;64.60
78649;DHT22;67962;47.310;9.642;2024-01-30T14:40:31;10.30;65.00
78649;DHT22;67962;47.310;9.642;2024-01-30T14:42:56;10.20;65.60
78649;DHT22;67962;47.310;9.642;2024-01-30T14:45:22;10.10;65.70
78649;DHT22;67962;47.310;9.642;2024-01-30T14:47:47;10.10;66.10
78649;DHT22;67962;47.310;9.642;2024-01-30T14:50:13;10.10;66.00
78649;DHT22;67962;47.310;9.642;2024-01-30T14:52:42;10.10;65.80
78649;DHT22;67962;47.310;9.642;2024-01-30T14:55:08;10.10;65.80
78649;DHT22;67962;47.310;9.642;2024-01-30T14:57:34;10.00;65.60
78649;DHT22;67962;47.310;9.642;2024-01-30T15:00:00;9.90;66.00
78649;DHT22;67962;47.310;9.642;2024-01-30T15:02:26;9.90;66.60
78649;DHT22;67962;47.310;9.642;2024-01-30T15:04:52;9.90;66.30
78649;DHT22;67962;47.310;9.642;2024-01-30T15:07:18;10.00;66.40
78649;DHT22;67962;47.310;9.642;2024-01-30T15:09:44;10.00;66.30
78649;DHT22;67962;47.310;9.642;2024-01-30T15:12:10;10.00;66.10
78649;DHT22;67962;47.310;9.642;2024-01-30T15:14:35;9.90;66.00
78649;DHT22;67962;47.310;9.642;2024-01-30T15:17:01;9.90;66.00
78649;DHT22;67962;47.310;9.642;2024-01-30T15:19:27;9.80;65.80
78649;DHT22;67962;47.310;9.642;2024-01-30T15:21:52;9.80;65.80
78649;DHT22;67962;47.310;9.642;2024-01-30T15:24:18;9.70;65.60
78649;DHT22;67962;47.310;9.642;2024-01-30T15:26:46;9.60;65.60
78649;DHT22;67962;47.310;9.642;2024-01-30T15:29:11;9.40;65.90
78649;DHT22;67962;47.310;9.642;2024-01-30T15:31:37;9.30;66.10
78649;DHT22;67962;47.310;9.642;2024-01-30T15:34:03;9.10;66.80
78649;DHT22;67962;47.310;9.642;2024-01-30T15:36:29;9.00;67.20
78649;DHT22;67962;47.310;9.642;2024-01-30T15:38:55;9.00;67.50
78649;DHT22;67962;47.310;9.642;2024-01-30T15:41:21;9.00;67.70
78649;DHT22;67962;47.310;9.642;2024-01-30T15:43:48;9.10;67.60
78649;DHT22;67962;47.310;9.642;2024-01-30T15:46:13;9.10;67.60